ILE ROUGE (AUT) Q current weather conditions

sailwx.info

Wind from 200 at 18 knots

Air temperature 14.0° C
Dewpoint 11.0° C

Last reported at 2020-Sep-27 21:00 UTC.
Time now 2020-Sep-27 23:24 UTC

Location: N 48°05' W 069°33'.
View on Google Maps.

See reports from other nearby stations

  
Tides and Currents Weather Stations Pressure Air Temp Water Temp Dewpoint Dewpoint Depression Visibility Wind Speed Wind Dir Waves Ship Positions
date/time (UTC)wind fromknots sea level pressurealtimeterstation pressurevisibilityair tempwater tempwave heightnotes
2020-Sep-27 23:00 210 19 14.6
2020-Sep-27 22:00 200 13 13.0
2020-Sep-27 21:00 200 18 14.0
2020-Sep-27 20:00 220 15 13.7
2020-Sep-27 19:00 220 14 13.0
2020-Sep-27 18:00 220 15 12.8
2020-Sep-27 17:00 220 15 13.2
2020-Sep-27 16:00 180 13 12.8
2020-Sep-27 15:00 190 9 12.9
2020-Sep-27 14:00 200 11 13.0
2020-Sep-27 13:00 200 14 13.6
2020-Sep-27 12:00 200 13 12.5
2020-Sep-27 11:00 210 20 13.3
2020-Sep-27 10:00 210 21 12.5
2020-Sep-27 09:00 200 15 11.8
2020-Sep-27 08:00 200 17 11.6
2020-Sep-27 07:00 200 15 11.8
2020-Sep-27 06:00 180 11 10.7
2020-Sep-27 05:00 190 9 gusting 17 11.7
2020-Sep-27 04:00 210 14 13.0
2020-Sep-27 03:00 200 13 12.0
2020-Sep-27 02:00 230 12 12.7
2020-Sep-27 01:00 230 13 11.9
2020-Sep-27 00:00 210 17 12.0
2020-Sep-26 23:00 220 20 14.2
2020-Sep-26 22:00 210 19 13.0
2020-Sep-26 21:00 210 20 14.0
2020-Sep-26 20:00 210 14 12.2
2020-Sep-26 19:00 210 15 gusting 20 14.0
2020-Sep-26 18:00 200 19 11.6
2020-Sep-26 17:00 200 14 12.6
2020-Sep-26 16:00 070 4 8.8
2020-Sep-26 15:00 060 2 9.4
2020-Sep-26 14:00 030 1 7.0
2020-Sep-26 13:00 070 1 7.4
2020-Sep-26 12:00 090 1 6.0
2020-Sep-26 11:00 330 2 6.0
2020-Sep-26 10:00 360 4 5.3
2020-Sep-26 09:00 330 2 5.2
2020-Sep-26 08:00 310 8 5.6
2020-Sep-26 07:00 300 6 5.6
2020-Sep-26 06:00 310 11 6.2
2020-Sep-26 05:00 350 5 5.1
2020-Sep-26 04:00 130 0 6.0
2020-Sep-26 03:00 060 0 6.0
2020-Sep-26 02:00 320 6 6.8
2020-Sep-26 01:00 280 5 7.2
2020-Sep-26 00:00 300 4 7.6
2020-Sep-25 23:00 180 6 9.3